createdAt,value
2018-11-03T00:02:24.395Z,74.53
2018-11-03T00:04:53.119Z,74.33
2018-11-03T00:07:21.811Z,74.36
2018-11-03T00:09:50.513Z,74.06
2018-11-03T00:12:19.220Z,74.22
2018-11-03T00:14:47.940Z,73.98
2018-11-03T00:17:16.665Z,74.36
2018-11-03T00:19:45.591Z,74.25
2018-11-03T00:22:14.461Z,74.00
2018-11-03T00:24:43.436Z,74.24
2018-11-03T00:27:12.166Z,74.21
2018-11-03T00:29:40.883Z,74.01
2018-11-03T00:32:09.669Z,74.22
2018-11-03T00:34:38.385Z,74.05
2018-11-03T00:37:07.092Z,73.88
2018-11-03T00:39:35.823Z,73.67
2018-11-03T00:42:05.225Z,73.80
2018-11-03T00:44:34.054Z,73.50
2018-11-03T00:47:02.731Z,73.59
2018-11-03T00:49:31.428Z,73.54
2018-11-03T00:52:00.379Z,73.25
2018-11-03T00:54:29.365Z,73.10
2018-11-03T00:56:58.062Z,73.69
2018-11-03T00:59:26.769Z,73.30
2018-11-03T01:01:55.477Z,73.57
2018-11-03T01:04:26.096Z,73.53
2018-11-03T01:06:54.796Z,73.68
2018-11-03T01:09:24.057Z,73.36
2018-11-03T01:11:52.760Z,73.75
2018-11-03T01:14:21.487Z,73.81
2018-11-03T01:16:52.461Z,73.79
2018-11-03T01:19:21.272Z,73.99
2018-11-03T01:21:49.994Z,73.97
2018-11-03T01:24:18.692Z,74.09
2018-11-03T01:26:47.404Z,74.29
2018-11-03T01:29:16.120Z,74.67
2018-11-03T01:31:44.881Z,74.68
2018-11-03T01:34:13.598Z,75.19
2018-11-03T01:36:42.309Z,75.00
2018-11-03T01:39:11.956Z,74.96
2018-11-03T01:41:40.697Z,75.15
2018-11-03T01:44:09.664Z,74.96
2018-11-03T01:46:38.379Z,74.71
2018-11-03T01:49:07.111Z,74.67
2018-11-03T01:51:35.812Z,74.19
2018-11-03T01:54:05.654Z,74.31
2018-11-03T01:56:34.383Z,74.24
2018-11-03T01:59:03.986Z,74.00
2018-11-03T02:01:32.869Z,74.26
2018-11-03T02:04:01.598Z,73.94
2018-11-03T02:06:30.588Z,74.00
2018-11-03T02:08:59.425Z,74.07
2018-11-03T02:11:28.132Z,74.60
2018-11-03T02:13:56.833Z,74.34
2018-11-03T02:19:05.969Z,74.51
2018-11-03T02:21:34.668Z,74.57
2018-11-03T02:24:03.971Z,74.24
2018-11-03T02:26:32.820Z,74.61
2018-11-03T02:29:16.944Z,74.61
2018-11-03T02:31:45.649Z,74.37
2018-11-03T02:34:14.371Z,74.55
2018-11-03T02:36:43.090Z,74.54
2018-11-03T02:39:11.814Z,74.41
2018-11-03T02:41:40.538Z,74.47
2018-11-03T02:44:09.249Z,74.53
2018-11-03T02:46:38.402Z,74.68
2018-11-03T02:49:07.892Z,75.13
2018-11-03T02:51:36.596Z,75.12
2018-11-03T02:54:06.288Z,75.00
2018-11-03T02:56:34.993Z,74.89
2018-11-03T02:59:04.278Z,74.73
2018-11-03T03:01:33.197Z,74.64
2018-11-03T03:04:01.952Z,74.78
2018-11-03T03:06:30.841Z,74.68
2018-11-03T03:08:59.828Z,74.48
2018-11-03T03:11:28.555Z,74.44
2018-11-03T03:13:57.329Z,74.45
2018-11-03T03:16:26.214Z,74.33
2018-11-03T03:18:55.011Z,74.49
2018-11-03T03:21:23.708Z,74.68
2018-11-03T03:23:52.420Z,74.46
2018-11-03T03:26:21.132Z,74.88
2018-11-03T03:28:49.923Z,74.93
2018-11-03T03:31:18.752Z,74.96
2018-11-03T03:33:47.444Z,75.28
2018-11-03T03:36:16.170Z,75.89
2018-11-03T03:38:44.873Z,76.10
2018-11-03T03:41:13.596Z,76.20
2018-11-03T03:43:42.300Z,75.69
2018-11-03T03:46:11.313Z,75.93
2018-11-03T03:48:40.020Z,75.78
2018-11-03T03:51:08.836Z,75.68
2018-11-03T03:53:37.575Z,75.32
2018-11-03T03:56:06.437Z,75.39
2018-11-03T03:58:35.144Z,75.20
2018-11-03T04:01:03.870Z,74.97
2018-11-03T04:03:32.573Z,75.20
2018-11-03T04:06:01.272Z,75.18
2018-11-03T04:08:29.964Z,74.81
2018-11-03T04:10:59.224Z,74.78
2018-11-03T04:13:28.104Z,75.15
2018-11-03T04:15:57.220Z,74.67
2018-11-03T04:18:25.937Z,74.65
2018-11-03T04:20:54.655Z,75.04
2018-11-03T04:23:23.378Z,75.00
2018-11-03T04:25:52.095Z,74.74
2018-11-03T04:28:20.819Z,74.85
2018-11-03T04:30:49.535Z,74.64
2018-11-03T04:33:18.243Z,74.74
2018-11-03T04:35:47.195Z,74.15
2018-11-03T04:38:15.887Z,74.63
2018-11-03T04:40:44.590Z,75.08
2018-11-03T04:43:13.655Z,75.06
2018-11-03T04:45:42.580Z,74.95
2018-11-03T04:48:11.332Z,75.00
2018-11-03T04:50:40.081Z,75.00
2018-11-03T04:53:08.795Z,75.00
2018-11-03T04:55:37.500Z,75.01
2018-11-03T04:58:06.221Z,74.91
2018-11-03T05:00:34.947Z,75.47
2018-11-03T05:03:03.667Z,75.21
2018-11-03T05:05:32.744Z,75.28
2018-11-03T05:08:01.460Z,75.39
2018-11-03T05:10:30.218Z,74.84
2018-11-03T05:12:58.901Z,74.99
2018-11-03T05:15:27.595Z,75.16
2018-11-03T05:17:56.307Z,75.04
2018-11-03T05:20:25.033Z,75.16
2018-11-03T05:22:53.869Z,75.16
2018-11-03T05:25:22.585Z,75.01
2018-11-03T05:27:51.644Z,75.47
2018-11-03T05:30:20.330Z,75.76
2018-11-03T05:32:49.039Z,75.23
2018-11-03T05:35:17.752Z,75.73
2018-11-03T05:37:46.925Z,75.70
2018-11-03T05:40:15.653Z,75.82
2018-11-03T05:42:44.376Z,76.04
2018-11-03T05:45:13.125Z,76.03
2018-11-03T05:47:41.864Z,76.17
2018-11-03T05:50:11.264Z,75.73
2018-11-03T05:52:40.308Z,75.93
2018-11-03T05:55:09.712Z,76.33
2018-11-03T05:57:38.692Z,76.21
2018-11-03T06:00:09.361Z,75.98
2018-11-03T06:02:38.085Z,76.10
2018-11-03T06:05:06.926Z,75.84
2018-11-03T06:07:35.627Z,76.04
2018-11-03T06:10:05.952Z,75.95
2018-11-03T06:12:35.219Z,75.90
2018-11-03T06:15:03.938Z,76.32
2018-11-03T06:17:32.667Z,76.73
2018-11-03T06:20:01.364Z,76.63
2018-11-03T06:22:30.134Z,76.61
2018-11-03T06:24:59.269Z,76.67
2018-11-03T06:27:28.461Z,77.11
2018-11-03T06:29:57.164Z,77.08
2018-11-03T06:32:26.129Z,76.90
2018-11-03T06:34:54.829Z,77.25
2018-11-03T06:37:23.783Z,77.12
2018-11-03T06:39:52.524Z,77.10
2018-11-03T06:42:21.217Z,76.91
2018-11-03T06:44:50.149Z,77.12
2018-11-03T06:47:18.964Z,77.02
2018-11-03T06:49:47.655Z,76.74
2018-11-03T06:52:16.508Z,77.13
2018-11-03T06:54:45.097Z,77.19
2018-11-03T06:57:13.793Z,77.26
2018-11-03T06:59:42.517Z,77.38
2018-11-03T07:02:11.240Z,77.27
2018-11-03T07:04:39.949Z,77.35
2018-11-03T07:07:08.685Z,77.27
2018-11-03T07:09:37.397Z,77.41
2018-11-03T07:12:06.465Z,77.57
2018-11-03T07:14:35.065Z,77.41
2018-11-03T07:17:03.773Z,77.50
2018-11-03T07:19:32.484Z,77.63
2018-11-03T07:22:01.491Z,77.86
2018-11-03T07:24:30.488Z,77.90
2018-11-03T07:26:59.473Z,77.94
2018-11-03T07:29:28.238Z,78.19
2018-11-03T07:31:57.167Z,77.90
2018-11-03T07:34:25.873Z,77.67
2018-11-03T07:36:54.576Z,78.05
2018-11-03T07:39:23.293Z,78.11
2018-11-03T07:41:51.993Z,78.46
2018-11-03T07:44:20.696Z,78.63
2018-11-03T07:46:49.405Z,78.40
2018-11-03T07:49:18.586Z,78.80
2018-11-03T07:51:48.452Z,78.75
2018-11-03T07:54:17.347Z,78.55
2018-11-03T07:56:46.320Z,78.64
2018-11-03T07:59:15.028Z,78.68
2018-11-03T08:01:43.740Z,79.04
2018-11-03T08:04:12.455Z,78.63
2018-11-03T08:06:41.243Z,79.03
2018-11-03T08:09:10.855Z,79.18
2018-11-03T08:11:39.723Z,78.69
2018-11-03T08:14:08.787Z,79.16
2018-11-03T08:16:37.514Z,79.21
2018-11-03T08:19:06.227Z,79.27
2018-11-03T08:21:34.959Z,78.93
2018-11-03T08:24:03.708Z,79.09
2018-11-03T08:26:32.387Z,79.10
2018-11-03T08:29:01.094Z,79.23
2018-11-03T08:31:29.836Z,79.61
2018-11-03T08:33:58.532Z,79.62
2018-11-03T08:36:27.240Z,79.38
2018-11-03T08:38:56.209Z,79.72
2018-11-03T08:41:25.119Z,79.60
2018-11-03T08:43:53.956Z,79.84
2018-11-03T08:46:22.921Z,80.05
2018-11-03T08:48:51.947Z,80.18
2018-11-03T08:51:20.468Z,79.76
2018-11-03T08:53:49.191Z,79.53
2018-11-03T08:56:17.923Z,79.67
2018-11-03T08:58:46.627Z,79.53
2018-11-03T09:01:15.630Z,79.73
2018-11-03T09:03:44.332Z,79.63
2018-11-03T09:06:13.172Z,80.39
2018-11-03T09:08:42.053Z,79.81
2018-11-03T09:11:10.772Z,80.24
2018-11-03T09:13:39.477Z,80.05
2018-11-03T09:16:08.192Z,80.00
2018-11-03T09:18:36.933Z,79.87
2018-11-03T09:21:05.603Z,80.09
2018-11-03T09:23:35.383Z,80.13
2018-11-03T09:26:05.280Z,79.83
2018-11-03T09:28:33.984Z,80.11
2018-11-03T09:31:02.710Z,79.67
2018-11-03T09:33:31.512Z,80.05
2018-11-03T09:36:00.229Z,80.18
2018-11-03T09:38:29.049Z,80.22
2018-11-03T09:40:58.020Z,80.43
2018-11-03T09:43:26.841Z,80.49
2018-11-03T09:49:34.905Z,79.41
2018-11-03T09:52:16.564Z,78.99
2018-11-03T09:54:50.277Z,78.60
2018-11-03T09:57:33.357Z,78.43
2018-11-03T10:00:12.869Z,78.69
2018-11-03T10:02:43.670Z,78.62
2018-11-03T10:05:15.256Z,78.50
2018-11-03T10:07:51.471Z,78.25
2018-11-03T10:10:25.657Z,77.71
2018-11-03T10:13:08.000Z,78.01
2018-11-03T10:15:43.055Z,77.60
2018-11-03T10:18:16.017Z,77.86
2018-11-03T10:20:48.124Z,77.67
2018-11-03T10:23:24.277Z,78.02
2018-11-03T10:25:53.279Z,77.95
2018-11-03T10:28:30.784Z,77.96
2018-11-03T10:31:03.398Z,77.73
2018-11-03T10:33:32.717Z,76.86
2018-11-03T10:36:06.332Z,76.95
2018-11-03T10:38:39.624Z,77.17
2018-11-03T10:41:09.233Z,76.62
2018-11-03T10:43:38.456Z,76.29
2018-11-03T10:46:10.189Z,76.23
2018-11-03T10:48:39.771Z,76.29
2018-11-03T10:51:10.447Z,76.06
2018-11-03T10:53:40.655Z,76.24
2018-11-03T10:58:52.958Z,76.07
2018-11-03T11:04:14.525Z,75.37
2018-11-03T11:06:52.339Z,74.74
2018-11-03T11:09:28.708Z,74.92
2018-11-03T11:12:03.737Z,75.25
2018-11-03T11:14:32.613Z,75.66
2018-11-03T11:17:01.757Z,75.11
2018-11-03T11:19:32.561Z,74.37
2018-11-03T11:22:07.220Z,73.17
2018-11-03T11:24:41.488Z,73.04
2018-11-03T11:27:16.983Z,71.84
2018-11-03T11:29:46.056Z,71.29
2018-11-03T11:35:52.941Z,71.10
2018-11-03T11:38:21.667Z,71.05
2018-11-03T11:40:50.382Z,71.37
2018-11-03T11:43:19.228Z,70.15
2018-11-03T11:45:47.857Z,70.23
2018-11-03T11:48:16.555Z,71.38
2018-11-03T11:50:45.288Z,69.67
2018-11-03T11:56:13.775Z,68.48
2018-11-03T11:58:42.773Z,68.21
2018-11-03T12:01:11.758Z,68.81
2018-11-03T12:03:40.468Z,68.52
2018-11-03T12:06:09.480Z,68.81
2018-11-03T12:08:38.439Z,66.77
2018-11-03T12:11:07.428Z,65.93
2018-11-03T12:13:36.171Z,64.96
2018-11-03T12:16:05.377Z,64.45
2018-11-03T12:18:34.076Z,65.54
2018-11-03T12:21:02.785Z,65.58
2018-11-03T12:23:31.777Z,65.47
2018-11-03T12:26:00.487Z,64.52
2018-11-03T12:28:29.262Z,64.46
2018-11-03T12:30:57.992Z,65.14
2018-11-03T12:33:26.695Z,64.24
2018-11-03T12:35:55.412Z,63.41
2018-11-03T12:38:24.136Z,63.20
2018-11-03T12:40:53.334Z,63.33
2018-11-03T12:43:34.127Z,62.45
2018-11-03T12:46:02.831Z,63.09
2018-11-03T12:48:31.816Z,63.81
2018-11-03T12:51:00.881Z,64.61
2018-11-03T12:53:29.530Z,64.04
2018-11-03T12:55:58.492Z,64.02
2018-11-03T12:58:27.197Z,63.71
2018-11-03T13:00:55.942Z,63.60
2018-11-03T13:03:24.648Z,62.76
2018-11-03T13:05:53.377Z,61.88
2018-11-03T13:08:22.241Z,62.30
2018-11-03T13:10:51.146Z,62.76
2018-11-03T13:13:20.252Z,63.63
2018-11-03T13:15:49.014Z,63.06
2018-11-03T13:18:17.684Z,62.73
2018-11-03T13:20:46.673Z,62.29
2018-11-03T13:23:15.559Z,61.21
2018-11-03T13:25:44.285Z,62.25
2018-11-03T13:28:13.042Z,61.35
2018-11-03T13:30:41.733Z,60.95
2018-11-03T13:33:10.451Z,60.75
2018-11-03T13:35:40.211Z,60.85
2018-11-03T13:38:09.199Z,59.17
2018-11-03T13:40:37.949Z,59.88
2018-11-03T13:43:07.512Z,59.97
2018-11-03T13:45:36.225Z,60.86
2018-11-03T13:48:05.566Z,61.66
2018-11-03T13:50:34.272Z,61.49
2018-11-03T13:53:03.157Z,61.79
2018-11-03T13:55:32.124Z,62.12
2018-11-03T13:58:00.840Z,62.04
2018-11-03T14:00:29.552Z,61.88
2018-11-03T14:02:58.524Z,61.10
2018-11-03T14:05:27.248Z,61.22
2018-11-03T14:07:55.943Z,60.33
2018-11-03T14:10:24.903Z,60.18
2018-11-03T14:12:53.598Z,60.83
2018-11-03T14:15:22.320Z,60.81
2018-11-03T14:17:51.046Z,60.98
2018-11-03T14:20:19.765Z,61.16
2018-11-03T14:23:06.256Z,61.48
2018-11-03T14:25:35.056Z,61.39
2018-11-03T14:28:04.770Z,61.71
2018-11-03T14:30:33.446Z,61.90
2018-11-03T14:33:02.141Z,61.91
2018-11-03T14:35:32.003Z,61.86
2018-11-03T14:38:00.731Z,62.64
2018-11-03T14:40:29.455Z,62.74
2018-11-03T14:42:58.360Z,63.49
2018-11-03T14:45:27.147Z,62.94
2018-11-03T14:47:55.825Z,62.50
2018-11-03T14:50:29.232Z,62.88
2018-11-03T14:55:57.680Z,63.83
2018-11-03T14:58:32.016Z,63.34
2018-11-03T15:01:00.741Z,63.83
2018-11-03T15:03:29.473Z,64.18
2018-11-03T15:05:58.192Z,64.00
2018-11-03T15:08:28.172Z,64.37
2018-11-03T15:10:56.793Z,64.58
2018-11-03T15:13:25.639Z,64.16
2018-11-03T15:15:54.320Z,64.78
2018-11-03T15:18:23.889Z,64.57
2018-11-03T15:20:52.616Z,64.50
2018-11-03T15:23:21.364Z,64.97
2018-11-03T15:25:50.075Z,65.65
2018-11-03T15:28:18.832Z,65.34
2018-11-03T15:30:47.565Z,65.60
2018-11-03T15:33:24.683Z,65.99
2018-11-03T15:36:02.597Z,65.71
2018-11-03T15:38:49.525Z,66.24
2018-11-03T15:41:30.915Z,66.71
2018-11-03T15:43:59.889Z,67.19
2018-11-03T15:46:28.999Z,66.91
2018-11-03T15:48:57.713Z,67.71
2018-11-03T15:51:45.508Z,67.61
2018-11-03T15:54:21.502Z,67.55
2018-11-03T15:56:50.214Z,68.05
2018-11-03T15:59:18.921Z,67.92
2018-11-03T16:01:47.639Z,68.07
2018-11-03T16:07:11.706Z,68.92
2018-11-03T16:09:40.516Z,68.71
2018-11-03T16:12:09.315Z,68.63
2018-11-03T16:14:48.635Z,68.62
2018-11-03T16:17:17.361Z,68.88
2018-11-03T16:22:39.052Z,68.74
2018-11-03T16:25:11.040Z,69.26
2018-11-03T16:27:40.307Z,68.90
2018-11-03T16:30:11.917Z,69.09
2018-11-03T16:32:48.885Z,69.12
2018-11-03T16:38:27.619Z,69.68
2018-11-03T16:41:11.168Z,69.95
2018-11-03T16:43:39.983Z,69.58
2018-11-03T16:46:09.612Z,70.11
2018-11-03T16:48:38.399Z,70.45
2018-11-03T16:51:07.088Z,70.30
2018-11-03T16:53:36.279Z,70.92
2018-11-03T16:56:05.121Z,71.06
2018-11-03T16:58:33.864Z,70.93
2018-11-03T17:01:05.414Z,71.42
2018-11-03T17:03:34.396Z,70.90
2018-11-03T17:06:03.121Z,71.41
2018-11-03T17:08:31.836Z,71.36
2018-11-03T17:11:00.561Z,71.32
2018-11-03T17:13:29.484Z,71.26
2018-11-03T17:15:58.180Z,71.50
2018-11-03T17:18:26.960Z,71.11
2018-11-03T17:20:55.628Z,71.10
2018-11-03T17:23:24.469Z,70.94
2018-11-03T17:25:53.168Z,70.95
2018-11-03T17:28:22.041Z,70.79
2018-11-03T17:30:50.748Z,70.95
2018-11-03T17:33:19.523Z,71.17
2018-11-03T17:35:48.328Z,71.03
2018-11-03T17:38:17.031Z,71.03
2018-11-03T17:40:45.732Z,71.09
2018-11-03T17:43:14.538Z,70.87
2018-11-03T17:45:43.189Z,70.76
2018-11-03T17:48:11.898Z,70.99
2018-11-03T17:50:40.988Z,70.81
2018-11-03T17:53:09.683Z,70.53
2018-11-03T17:55:38.396Z,70.87
2018-11-03T17:58:07.107Z,71.29
2018-11-03T18:00:36.022Z,71.20
2018-11-03T18:03:05.630Z,71.09
2018-11-03T18:05:34.624Z,71.01
2018-11-03T18:08:03.343Z,71.45
2018-11-03T18:10:32.044Z,71.79
2018-11-03T18:13:00.799Z,71.50
2018-11-03T18:15:29.466Z,71.64
2018-11-03T18:17:58.318Z,71.46
2018-11-03T18:20:28.477Z,71.97
2018-11-03T18:22:58.141Z,71.70
2018-11-03T18:25:26.851Z,71.73
2018-11-03T18:27:55.556Z,71.83
2018-11-03T18:30:24.268Z,71.51
2018-11-03T18:32:53.013Z,71.80
2018-11-03T18:35:21.712Z,71.96
2018-11-03T18:37:50.656Z,71.95
2018-11-03T18:40:19.319Z,71.98
2018-11-03T18:42:48.565Z,71.98
2018-11-03T18:45:17.289Z,72.12
2018-11-03T18:47:46.836Z,71.86
2018-11-03T18:50:15.840Z,71.83
2018-11-03T18:52:44.857Z,72.05
2018-11-03T18:55:13.860Z,72.21
2018-11-03T18:57:42.857Z,72.31
2018-11-03T19:00:11.784Z,72.46
2018-11-03T19:02:40.929Z,72.11
2018-11-03T19:05:09.957Z,72.54
2018-11-03T19:07:39.149Z,72.33
2018-11-03T19:10:08.816Z,72.39
2018-11-03T19:12:37.524Z,72.27
2018-11-03T19:15:06.972Z,72.17
2018-11-03T19:17:35.676Z,72.33
2018-11-03T19:20:05.683Z,72.52
2018-11-03T19:22:35.455Z,72.34
2018-11-03T19:25:05.649Z,72.30
2018-11-03T19:27:34.363Z,72.60
2018-11-03T19:30:03.691Z,72.60
2018-11-03T19:32:32.372Z,72.99
2018-11-03T19:35:01.093Z,72.93
2018-11-03T19:37:29.801Z,72.83
2018-11-03T19:39:58.547Z,72.90
2018-11-03T19:42:27.252Z,72.95
2018-11-03T19:44:56.019Z,72.74
2018-11-03T19:47:24.996Z,72.72
2018-11-03T19:49:53.789Z,72.77
2018-11-03T19:52:22.785Z,72.78
2018-11-03T19:54:51.493Z,72.56
2018-11-03T19:57:20.217Z,72.67
2018-11-03T19:59:48.940Z,72.81
2018-11-03T20:02:18.459Z,72.68
2018-11-03T20:04:47.095Z,72.67
2018-11-03T20:07:15.809Z,72.93
2018-11-03T20:09:44.552Z,72.82
2018-11-03T20:12:13.264Z,72.66
2018-11-03T20:14:41.987Z,72.51
2018-11-03T20:17:11.096Z,72.33
2018-11-03T20:19:41.010Z,72.41
2018-11-03T20:22:09.704Z,72.50
2018-11-03T20:24:38.452Z,72.71
2018-11-03T20:27:07.193Z,72.93
2018-11-03T20:29:37.057Z,72.70
2018-11-03T20:32:05.793Z,72.99
2018-11-03T20:34:34.736Z,73.20
2018-11-03T20:37:03.723Z,72.79
2018-11-03T20:39:32.443Z,72.80
2018-11-03T20:42:01.238Z,72.90
2018-11-03T20:44:29.859Z,72.85
2018-11-03T20:46:58.779Z,72.36
2018-11-03T20:49:27.496Z,72.70
2018-11-03T20:51:56.440Z,72.64
2018-11-03T20:54:26.002Z,72.59
2018-11-03T20:56:54.716Z,72.43
2018-11-03T20:59:23.424Z,72.69
2018-11-03T21:01:52.158Z,72.65
2018-11-03T21:04:21.096Z,72.57
2018-11-03T21:06:49.815Z,73.11
2018-11-03T21:09:18.788Z,73.27
2018-11-03T21:11:47.498Z,72.96
2018-11-03T21:14:16.223Z,73.26
2018-11-03T21:16:46.006Z,73.33
2018-11-03T21:19:15.353Z,73.07
2018-11-03T21:21:44.357Z,73.17
2018-11-03T21:24:13.435Z,73.25
2018-11-03T21:26:42.074Z,73.37
2018-11-03T21:29:11.255Z,73.58
2018-11-03T21:31:40.013Z,73.34
2018-11-03T21:34:08.703Z,73.95
2018-11-03T21:36:37.418Z,73.56
2018-11-03T21:39:07.903Z,73.47
2018-11-03T21:41:36.629Z,73.65
2018-11-03T21:44:05.528Z,73.70
2018-11-03T21:46:34.373Z,73.59
2018-11-03T21:49:03.205Z,73.78
2018-11-03T21:51:31.911Z,73.60
2018-11-03T21:54:00.635Z,73.47
2018-11-03T21:56:29.628Z,73.99
2018-11-03T21:58:58.611Z,73.93
2018-11-03T22:01:27.840Z,74.26
2018-11-03T22:03:56.797Z,74.53
2018-11-03T22:06:25.643Z,74.00
2018-11-03T22:08:55.228Z,73.69
2018-11-03T22:11:24.189Z,73.58
2018-11-03T22:13:53.196Z,73.65
2018-11-03T22:16:21.907Z,73.75
2018-11-03T22:18:50.855Z,73.85
2018-11-03T22:21:19.857Z,73.71
2018-11-03T22:23:48.596Z,73.51
2018-11-03T22:26:17.332Z,73.76
2018-11-03T22:28:46.243Z,73.46
2018-11-03T22:31:14.943Z,73.45
2018-11-03T22:33:43.907Z,73.67
2018-11-03T22:36:12.623Z,73.39
2018-11-03T22:38:41.580Z,73.87
2018-11-03T22:41:10.288Z,73.60
2018-11-03T22:43:39.243Z,73.99
2018-11-03T22:46:07.953Z,73.77
2018-11-03T22:48:36.684Z,74.03
2018-11-03T22:51:05.447Z,73.73
2018-11-03T22:53:34.132Z,73.70
2018-11-03T22:56:03.288Z,73.65
2018-11-03T22:58:32.281Z,73.78
2018-11-03T23:01:01.016Z,73.81
2018-11-03T23:03:30.454Z,73.74
2018-11-03T23:05:59.150Z,73.93
2018-11-03T23:08:27.844Z,73.70
2018-11-03T23:10:56.624Z,73.71
2018-11-03T23:13:25.429Z,73.90
2018-11-03T23:15:54.302Z,73.92
2018-11-03T23:18:23.013Z,74.01
2018-11-03T23:20:51.712Z,73.72
2018-11-03T23:23:20.420Z,74.10
2018-11-03T23:25:49.114Z,73.85
2018-11-03T23:28:18.026Z,74.46
2018-11-03T23:30:46.741Z,74.14
2018-11-03T23:33:15.551Z,73.93
2018-11-03T23:35:44.272Z,74.03
2018-11-03T23:38:12.992Z,73.84
2018-11-03T23:40:41.727Z,73.73
2018-11-03T23:43:10.439Z,73.96
2018-11-03T23:45:39.160Z,74.06
2018-11-03T23:48:08.168Z,73.68
2018-11-03T23:50:36.884Z,73.78
2018-11-03T23:53:05.610Z,73.39
2018-11-03T23:55:34.299Z,73.15
2018-11-03T23:58:03.012Z,73.52
